Time;durP1;ratioP1;P1;durP2;ratioP2;P2;SDS_P1;SDS_P2;PMS_P1;PMS_P2;Temp;Humidity;BMP_temperature;BMP_pressure;BME280_temperature;BME280_humidity;BME280_pressure;Samples;Min_cycle;Max_cycle;Signal;HPM_P1;HPM_P2
2024/01/13 00:01:49;;;;;;;31.60;13.73;;;;;;;;;;5002472;28;20054;-86
2024/01/13 00:04:15;;;;;;;28.90;12.88;;;;;;;;;;5003619;28;20038;-85
2024/01/13 00:06:41;;;;;;;40.05;14.80;;;;;;;;;;5001147;28;20041;-86
2024/01/13 00:09:06;;;;;;;37.40;15.77;;;;;;;;;;5001811;28;20109;-85
2024/01/13 00:11:32;;;;;;;33.60;15.20;;;;;;;;;;5000634;28;20038;-86
2024/01/13 00:13:58;;;;;;;32.95;14.15;;;;;;;;;;5002068;28;20074;-86
2024/01/13 00:16:23;;;;;;;33.10;13.75;;;;;;;;;;5002236;28;20392;-85
2024/01/13 00:18:49;;;;;;;34.13;14.27;;;;;;;;;;4998097;28;20038;-84
2024/01/13 00:21:14;;;;;;;34.47;15.27;;;;;;;;;;5002912;28;20030;-84
2024/01/13 00:23:40;;;;;;;34.33;15.00;;;;;;;;;;4999493;28;20022;-85
2024/01/13 00:26:05;;;;;;;33.53;14.10;;;;;;;;;;4981183;28;20043;-86
2024/01/13 00:28:31;;;;;;;25.70;12.50;;;;;;;;;;4976286;28;20038;-84
2024/01/13 00:30:56;;;;;;;25.25;12.25;;;;;;;;;;5001327;28;20023;-84
2024/01/13 00:33:22;;;;;;;26.02;12.82;;;;;;;;;;4985795;28;20516;-84
2024/01/13 00:35:47;;;;;;;25.77;12.45;;;;;;;;;;4985209;28;20041;-87
2024/01/13 00:38:13;;;;;;;28.80;12.75;;;;;;;;;;4985747;28;20042;-85
2024/01/13 00:40:38;;;;;;;23.45;11.90;;;;;;;;;;5000529;28;20076;-85
2024/01/13 00:43:04;;;;;;;25.92;11.95;;;;;;;;;;5000027;28;20503;-84
2024/01/13 00:45:29;;;;;;;25.10;11.95;;;;;;;;;;5000288;28;20030;-85
2024/01/13 00:47:55;;;;;;;26.85;11.82;;;;;;;;;;4997526;28;20117;-86
2024/01/13 00:50:20;;;;;;;26.92;12.40;;;;;;;;;;5000062;28;20504;-85
2024/01/13 00:52:45;;;;;;;27.13;11.63;;;;;;;;;;5001573;28;20029;-85
2024/01/13 00:55:11;;;;;;;25.20;12.02;;;;;;;;;;5002594;28;20139;-84
2024/01/13 00:57:36;;;;;;;25.30;11.32;;;;;;;;;;5003051;28;20037;-86
2024/01/13 01:00:02;;;;;;;26.50;12.07;;;;;;;;;;4999764;28;20025;-85
2024/01/13 01:02:27;;;;;;;25.75;11.45;;;;;;;;;;5003834;28;20023;-85
2024/01/13 01:04:53;;;;;;;28.30;12.10;;;;;;;;;;4986345;28;20035;-85
2024/01/13 01:07:18;;;;;;;24.15;11.23;;;;;;;;;;5001119;28;20034;-86
2024/01/13 01:09:44;;;;;;;24.58;11.80;;;;;;;;;;4980094;28;20073;-85
2024/01/13 01:12:10;;;;;;;24.20;11.55;;;;;;;;;;5001089;28;20026;-85
2024/01/13 01:14:35;;;;;;;26.17;12.27;;;;;;;;;;4986603;28;20583;-85
2024/01/13 01:17:01;;;;;;;26.83;11.98;;;;;;;;;;5000028;28;20046;-84
2024/01/13 01:19:26;;;;;;;24.83;11.57;;;;;;;;;;4972398;28;20026;-86
2024/01/13 01:21:52;;;;;;;24.73;11.45;;;;;;;;;;4984933;28;20038;-85
2024/01/13 01:24:17;;;;;;;24.50;11.85;;;;;;;;;;4999472;28;20091;-85
2024/01/13 01:26:43;;;;;;;26.58;11.40;;;;;;;;;;4999996;28;20121;-86
2024/01/13 01:29:08;;;;;;;26.83;11.15;;;;;;;;;;4998894;28;20492;-85
2024/01/13 01:31:34;;;;;;;25.08;12.18;;;;;;;;;;4990170;28;20034;-85
2024/01/13 01:34:00;;;;;;;27.98;12.13;;;;;;;;;;4997942;28;20065;-84
2024/01/13 01:36:25;;;;;;;28.35;11.98;;;;;;;;;;4986364;28;20042;-86
2024/01/13 01:38:51;;;;;;;25.08;12.07;;;;;;;;;;4977017;28;20038;-85
2024/01/13 01:41:16;;;;;;;26.13;12.07;;;;;;;;;;4973080;28;20053;-84
2024/01/13 01:43:42;;;;;;;25.70;11.85;;;;;;;;;;4976937;28;20026;-86
2024/01/13 01:46:11;;;;;;;29.00;12.23;;;;;;;;;;4983335;28;20030;-86
2024/01/13 01:48:38;;;;;;;30.00;12.07;;;;;;;;;;5001520;28;20039;-84
2024/01/13 01:51:04;;;;;;;30.08;13.07;;;;;;;;;;4986708;28;20034;-84
2024/01/13 01:53:32;;;;;;;30.15;12.43;;;;;;;;;;4993485;28;20037;-86
2024/01/13 01:56:00;;;;;;;28.60;12.45;;;;;;;;;;5002535;28;20038;-85
2024/01/13 01:58:25;;;;;;;28.60;12.40;;;;;;;;;;5001474;28;20042;-84
2024/01/13 02:00:51;;;;;;;27.08;12.68;;;;;;;;;;5000374;28;20088;-84
2024/01/13 02:03:17;;;;;;;34.67;13.90;;;;;;;;;;4999968;28;20057;-85
2024/01/13 02:05:42;;;;;;;35.45;13.73;;;;;;;;;;5000362;28;20034;-85
2024/01/13 02:08:08;;;;;;;33.53;13.23;;;;;;;;;;4998589;28;20492;-84
2024/01/13 02:10:34;;;;;;;30.70;13.05;;;;;;;;;;5000913;28;20514;-85
2024/01/13 02:12:59;;;;;;;29.85;12.95;;;;;;;;;;4994251;28;20041;-84
2024/01/13 02:15:25;;;;;;;29.92;12.50;;;;;;;;;;5000719;28;20030;-85
2024/01/13 02:17:50;;;;;;;24.75;11.90;;;;;;;;;;4990643;28;20483;-85
2024/01/13 02:20:16;;;;;;;27.35;12.00;;;;;;;;;;5001497;28;20045;-84
2024/01/13 02:22:41;;;;;;;28.85;12.10;;;;;;;;;;5000409;28;20034;-86
2024/01/13 02:25:08;;;;;;;28.10;12.55;;;;;;;;;;5001905;28;20057;-84
2024/01/13 02:27:34;;;;;;;25.88;12.15;;;;;;;;;;4991726;28;20044;-84
2024/01/13 02:29:59;;;;;;;29.98;12.52;;;;;;;;;;5000598;28;20094;-85
2024/01/13 02:32:24;;;;;;;31.08;12.98;;;;;;;;;;5002372;28;20030;-83
2024/01/13 02:34:50;;;;;;;24.50;11.43;;;;;;;;;;4998957;28;20027;-84
2024/01/13 02:37:16;;;;;;;31.25;13.07;;;;;;;;;;4981340;28;20041;-85
2024/01/13 02:39:41;;;;;;;34.33;13.20;;;;;;;;;;4999532;28;20364;-85
2024/01/13 02:42:08;;;;;;;33.35;13.35;;;;;;;;;;5000754;28;20058;-84
2024/01/13 02:44:34;;;;;;;34.40;13.65;;;;;;;;;;4983333;28;20026;-85
2024/01/13 02:46:59;;;;;;;31.65;13.55;;;;;;;;;;5002439;28;20032;-85
2024/01/13 02:49:25;;;;;;;33.58;13.48;;;;;;;;;;5002431;28;20034;-85
2024/01/13 02:51:50;;;;;;;32.35;12.98;;;;;;;;;;5004223;28;20026;-84
2024/01/13 02:54:16;;;;;;;32.03;13.20;;;;;;;;;;5002585;28;20030;-86
2024/01/13 02:56:41;;;;;;;31.65;13.43;;;;;;;;;;4999955;28;20037;-86
2024/01/13 02:59:07;;;;;;;32.08;13.55;;;;;;;;;;5003601;28;20042;-86
2024/01/13 03:01:33;;;;;;;32.38;12.57;;;;;;;;;;5003419;28;20039;-85
2024/01/13 03:03:59;;;;;;;27.92;12.32;;;;;;;;;;5000918;28;20030;-85
2024/01/13 03:06:25;;;;;;;27.48;11.82;;;;;;;;;;5005377;28;20110;-85
2024/01/13 03:08:52;;;;;;;28.73;11.70;;;;;;;;;;4983732;28;20049;-84
2024/01/13 03:11:18;;;;;;;27.35;11.38;;;;;;;;;;5003184;28;20030;-86
2024/01/13 03:13:44;;;;;;;25.17;11.13;;;;;;;;;;5000587;28;20102;-85
2024/01/13 03:16:10;;;;;;;27.20;12.13;;;;;;;;;;5001423;28;20120;-86
2024/01/13 03:18:36;;;;;;;24.20;11.45;;;;;;;;;;4984863;28;20062;-87
2024/01/13 03:21:02;;;;;;;27.92;12.02;;;;;;;;;;5003536;28;20026;-85
2024/01/13 03:23:29;;;;;;;26.15;11.30;;;;;;;;;;5006013;28;20027;-85
2024/01/13 03:25:54;;;;;;;25.38;10.52;;;;;;;;;;4989057;28;20492;-85
2024/01/13 03:28:21;;;;;;;23.50;10.98;;;;;;;;;;5001919;28;20026;-84
2024/01/13 03:30:47;;;;;;;24.42;11.38;;;;;;;;;;5000366;28;20688;-85
2024/01/13 03:33:12;;;;;;;26.60;11.30;;;;;;;;;;4980083;28;20030;-85
2024/01/13 03:35:38;;;;;;;25.13;11.18;;;;;;;;;;5002082;28;20026;-86
2024/01/13 03:38:03;;;;;;;23.15;10.75;;;;;;;;;;5003813;28;20061;-87
2024/01/13 03:40:29;;;;;;;22.92;10.75;;;;;;;;;;5005082;28;20065;-86
2024/01/13 03:42:54;;;;;;;25.25;10.30;;;;;;;;;;5006256;28;20057;-86
2024/01/13 03:45:20;;;;;;;25.00;9.98;;;;;;;;;;5000289;28;20042;-86
2024/01/13 03:47:45;;;;;;;24.70;10.13;;;;;;;;;;4994571;28;20042;-86
2024/01/13 03:50:11;;;;;;;22.85;10.52;;;;;;;;;;5007438;28;20019;-85
2024/01/13 03:52:37;;;;;;;24.77;10.85;;;;;;;;;;5005772;28;20515;-86
2024/01/13 03:55:03;;;;;;;22.85;10.73;;;;;;;;;;5003151;28;20023;-85
2024/01/13 03:57:28;;;;;;;26.67;11.85;;;;;;;;;;5003613;28;20037;-86
2024/01/13 03:59:54;;;;;;;27.63;11.27;;;;;;;;;;5005344;28;20031;-85
2024/01/13 04:02:20;;;;;;;25.67;11.50;;;;;;;;;;4968867;28;20520;-85
2024/01/13 04:04:45;;;;;;;26.40;10.77;;;;;;;;;;5006076;28;20038;-86
2024/01/13 04:07:11;;;;;;;34.70;12.73;;;;;;;;;;5000010;28;20041;-85
2024/01/13 04:09:39;;;;;;;31.95;12.52;;;;;;;;;;4982305;28;20038;-86
2024/01/13 04:12:05;;;;;;;27.98;11.73;;;;;;;;;;5007297;28;20045;-87
2024/01/13 04:14:31;;;;;;;27.15;11.45;;;;;;;;;;4986838;28;20050;-85
2024/01/13 04:16:59;;;;;;;32.08;12.23;;;;;;;;;;5002201;28;20090;-85
2024/01/13 04:19:25;;;;;;;30.77;12.25;;;;;;;;;;4989847;28;20026;-85
2024/01/13 04:21:50;;;;;;;29.80;12.45;;;;;;;;;;5002365;28;20037;-83
2024/01/13 04:24:16;;;;;;;30.92;12.75;;;;;;;;;;5005603;28;20026;-84
2024/01/13 04:26:41;;;;;;;29.00;12.38;;;;;;;;;;5005196;28;20057;-87
2024/01/13 04:29:07;;;;;;;26.38;11.70;;;;;;;;;;5003258;28;20121;-85
2024/01/13 04:31:32;;;;;;;27.52;11.80;;;;;;;;;;5006568;28;20034;-86
2024/01/13 04:33:58;;;;;;;24.98;11.25;;;;;;;;;;4996973;28;20060;-86
2024/01/13 04:36:23;;;;;;;24.52;10.88;;;;;;;;;;5004218;28;20045;-85
2024/01/13 04:38:50;;;;;;;23.45;10.90;;;;;;;;;;5001079;28;20034;-84
2024/01/13 04:41:15;;;;;;;24.45;11.30;;;;;;;;;;5003713;28;20046;-85
2024/01/13 04:43:41;;;;;;;27.02;12.02;;;;;;;;;;5003180;28;20674;-84
2024/01/13 04:46:07;;;;;;;29.20;12.00;;;;;;;;;;5005790;28;20054;-85
2024/01/13 04:48:33;;;;;;;23.40;10.73;;;;;;;;;;4987405;28;20037;-86
2024/01/13 04:50:59;;;;;;;28.35;11.60;;;;;;;;;;5002075;28;20485;-86
2024/01/13 04:53:24;;;;;;;22.35;10.63;;;;;;;;;;5004612;28;20050;-85
2024/01/13 04:55:51;;;;;;;25.45;10.73;;;;;;;;;;5002095;28;20042;-86
2024/01/13 04:58:16;;;;;;;22.88;10.60;;;;;;;;;;5000837;28;20038;-84
2024/01/13 05:00:42;;;;;;;24.38;10.52;;;;;;;;;;4999677;28;20030;-85
2024/01/13 05:03:08;;;;;;;21.77;10.13;;;;;;;;;;5001345;28;20018;-86
2024/01/13 05:05:34;;;;;;;20.33;10.13;;;;;;;;;;4995912;28;20034;-86
2024/01/13 05:08:00;;;;;;;21.70;10.10;;;;;;;;;;5002328;28;20089;-86
2024/01/13 05:10:25;;;;;;;23.45;10.50;;;;;;;;;;4978448;28;20038;-85
2024/01/13 05:12:51;;;;;;;21.30;10.52;;;;;;;;;;4985300;28;20034;-85
2024/01/13 05:15:16;;;;;;;23.15;10.52;;;;;;;;;;5003543;28;20034;-86
2024/01/13 05:17:42;;;;;;;21.27;9.80;;;;;;;;;;4968428;28;20064;-86
2024/01/13 05:20:08;;;;;;;21.08;10.10;;;;;;;;;;4997846;28;20041;-85
2024/01/13 05:22:33;;;;;;;22.40;10.55;;;;;;;;;;4997677;28;20031;-86
2024/01/13 05:24:59;;;;;;;22.05;9.73;;;;;;;;;;5000969;28;20037;-87
2024/01/13 05:27:24;;;;;;;21.70;9.57;;;;;;;;;;5000370;28;20030;-86
2024/01/13 05:29:50;;;;;;;20.77;9.80;;;;;;;;;;4999795;28;20165;-84
2024/01/13 05:32:15;;;;;;;21.10;9.95;;;;;;;;;;4999584;28;20026;-84
2024/01/13 05:34:41;;;;;;;21.92;9.90;;;;;;;;;;4991054;28;20037;-83
2024/01/13 05:37:07;;;;;;;18.67;9.52;;;;;;;;;;4995773;28;20057;-85
2024/01/13 05:39:32;;;;;;;22.58;10.52;;;;;;;;;;4997562;28;20034;-85
2024/01/13 05:41:58;;;;;;;22.02;10.02;;;;;;;;;;4980934;28;20031;-86
2024/01/13 05:44:24;;;;;;;25.77;11.68;;;;;;;;;;4998834;28;20492;-85
2024/01/13 05:46:51;;;;;;;23.63;10.70;;;;;;;;;;5001999;28;20049;-84
2024/01/13 05:49:17;;;;;;;21.08;10.18;;;;;;;;;;4999645;28;20504;-85
2024/01/13 05:51:42;;;;;;;23.30;10.40;;;;;;;;;;4967332;28;20041;-84
2024/01/13 05:54:09;;;;;;;23.90;10.63;;;;;;;;;;5001830;28;20034;-85
2024/01/13 05:56:37;;;;;;;30.08;11.60;;;;;;;;;;5001283;28;20124;-86
2024/01/13 05:59:03;;;;;;;20.48;10.13;;;;;;;;;;5001762;28;20037;-86
2024/01/13 06:01:29;;;;;;;23.58;10.60;;;;;;;;;;4996794;28;20034;-86
2024/01/13 06:03:55;;;;;;;22.30;10.27;;;;;;;;;;4997862;28;20039;-84
2024/01/13 06:06:21;;;;;;;22.27;10.90;;;;;;;;;;5002076;28;20122;-86
2024/01/13 06:08:46;;;;;;;24.55;10.20;;;;;;;;;;4993490;28;20092;-86
2024/01/13 06:11:12;;;;;;;21.70;10.02;;;;;;;;;;4982995;28;20031;-84
2024/01/13 06:13:38;;;;;;;20.67;9.60;;;;;;;;;;5002123;28;20499;-85
2024/01/13 06:16:04;;;;;;;24.00;10.77;;;;;;;;;;5006237;28;20026;-85
2024/01/13 06:18:29;;;;;;;21.15;10.02;;;;;;;;;;5004940;28;20088;-85
2024/01/13 06:20:55;;;;;;;22.65;9.90;;;;;;;;;;5005856;28;20046;-84
2024/01/13 06:23:21;;;;;;;20.10;9.02;;;;;;;;;;5002013;28;20476;-85
2024/01/13 06:25:47;;;;;;;24.23;10.45;;;;;;;;;;4998801;28;20039;-86
2024/01/13 06:28:13;;;;;;;25.60;10.98;;;;;;;;;;5004116;28;20083;-84
2024/01/13 06:30:38;;;;;;;25.58;10.88;;;;;;;;;;4995128;28;20034;-84
2024/01/13 06:33:04;;;;;;;26.60;11.55;;;;;;;;;;5005281;28;20065;-85
2024/01/13 06:35:29;;;;;;;24.30;10.82;;;;;;;;;;5004368;28;20480;-85
2024/01/13 06:37:55;;;;;;;24.33;10.98;;;;;;;;;;5004293;28;20126;-85
2024/01/13 06:40:21;;;;;;;24.67;10.63;;;;;;;;;;4987752;28;20120;-84
2024/01/13 06:42:46;;;;;;;26.27;10.45;;;;;;;;;;5000360;28;20018;-84
2024/01/13 06:45:12;;;;;;;23.33;9.85;;;;;;;;;;4987975;28;20160;-84
2024/01/13 06:47:37;;;;;;;25.52;9.70;;;;;;;;;;5003483;28;20026;-83
2024/01/13 06:50:03;;;;;;;22.67;9.75;;;;;;;;;;5006808;28;20058;-85
2024/01/13 06:52:28;;;;;;;23.00;9.63;;;;;;;;;;5006603;28;20066;-85
2024/01/13 06:54:54;;;;;;;20.90;9.70;;;;;;;;;;4984887;28;20109;-85
2024/01/13 06:57:20;;;;;;;20.48;9.10;;;;;;;;;;5006900;28;20056;-85
2024/01/13 06:59:46;;;;;;;21.35;9.02;;;;;;;;;;5006560;28;20046;-84
2024/01/13 07:02:12;;;;;;;18.75;9.48;;;;;;;;;;4989460;28;20106;-83
2024/01/13 07:04:38;;;;;;;22.40;9.13;;;;;;;;;;5002920;28;20034;-85
2024/01/13 07:07:05;;;;;;;22.45;9.80;;;;;;;;;;4999430;28;20039;-85
2024/01/13 07:09:30;;;;;;;21.48;10.00;;;;;;;;;;5005046;28;20034;-85
2024/01/13 07:11:56;;;;;;;24.33;9.80;;;;;;;;;;5002196;28;20034;-82
2024/01/13 07:14:21;;;;;;;20.42;9.88;;;;;;;;;;4974767;28;20037;-86
2024/01/13 07:16:47;;;;;;;23.73;9.93;;;;;;;;;;5002548;28;20053;-84
2024/01/13 07:19:12;;;;;;;24.13;9.65;;;;;;;;;;5005993;28;20034;-86
2024/01/13 07:21:38;;;;;;;24.85;9.88;;;;;;;;;;5005609;28;20113;-84
2024/01/13 07:24:04;;;;;;;28.20;11.50;;;;;;;;;;5001577;28;20058;-85
2024/01/13 07:26:30;;;;;;;29.80;12.23;;;;;;;;;;4998375;28;20038;-85
2024/01/13 07:28:56;;;;;;;27.67;11.65;;;;;;;;;;4994662;28;20122;-84
2024/01/13 07:31:21;;;;;;;27.95;11.82;;;;;;;;;;4996357;28;20121;-85
2024/01/13 07:33:47;;;;;;;28.95;11.90;;;;;;;;;;4993514;28;20038;-83
2024/01/13 07:36:12;;;;;;;34.63;12.95;;;;;;;;;;4991999;28;20023;-84
2024/01/13 07:38:38;;;;;;;32.88;12.35;;;;;;;;;;4997446;28;20049;-82
2024/01/13 07:41:03;;;;;;;26.67;11.70;;;;;;;;;;4993355;28;20058;-84
2024/01/13 07:43:29;;;;;;;27.45;11.48;;;;;;;;;;4995915;28;20042;-83
2024/01/13 07:45:54;;;;;;;29.98;12.23;;;;;;;;;;4996278;28;20165;-86
2024/01/13 07:48:20;;;;;;;26.50;12.15;;;;;;;;;;4998973;28;20519;-85
2024/01/13 07:50:45;;;;;;;29.17;11.68;;;;;;;;;;5000261;28;20038;-83
2024/01/13 07:53:11;;;;;;;25.95;10.73;;;;;;;;;;5001775;28;20038;-84
2024/01/13 07:55:36;;;;;;;26.00;11.20;;;;;;;;;;5001019;28;20041;-86
2024/01/13 07:58:02;;;;;;;24.15;10.38;;;;;;;;;;5000925;28;20062;-87
2024/01/13 08:00:27;;;;;;;25.17;10.00;;;;;;;;;;4999147;28;20034;-84
2024/01/13 08:02:53;;;;;;;24.13;10.25;;;;;;;;;;4999179;28;20063;-84
2024/01/13 08:05:19;;;;;;;24.02;10.98;;;;;;;;;;4975476;28;20042;-85
2024/01/13 08:07:45;;;;;;;22.05;10.35;;;;;;;;;;4975721;28;20496;-83
2024/01/13 08:10:11;;;;;;;22.00;10.13;;;;;;;;;;4997658;28;20044;-85
2024/01/13 08:12:36;;;;;;;21.77;10.65;;;;;;;;;;5002124;28;20050;-87
2024/01/13 08:15:03;;;;;;;23.88;11.25;;;;;;;;;;5002029;28;20038;-85
2024/01/13 08:17:29;;;;;;;25.67;11.40;;;;;;;;;;5002293;28;20030;-85
2024/01/13 08:19:55;;;;;;;26.58;10.93;;;;;;;;;;4999464;28;20046;-87
2024/01/13 08:22:20;;;;;;;25.02;11.27;;;;;;;;;;5001372;28;20105;-86
2024/01/13 08:24:46;;;;;;;25.60;11.63;;;;;;;;;;5001812;28;20125;-86
2024/01/13 08:27:11;;;;;;;23.27;10.70;;;;;;;;;;5000578;28;20034;-86
2024/01/13 08:29:37;;;;;;;26.77;10.70;;;;;;;;;;4985502;28;20117;-87
2024/01/13 08:32:02;;;;;;;22.25;10.10;;;;;;;;;;4990709;28;20034;-84
2024/01/13 08:34:28;;;;;;;23.13;10.50;;;;;;;;;;4978117;28;20109;-83
2024/01/13 08:36:53;;;;;;;27.65;11.45;;;;;;;;;;4993703;28;20044;-85
2024/01/13 08:39:19;;;;;;;30.98;11.80;;;;;;;;;;4992263;28;20411;-86
2024/01/13 08:41:45;;;;;;;38.55;13.88;;;;;;;;;;4994326;28;20034;-86
2024/01/13 08:44:10;;;;;;;42.90;15.65;;;;;;;;;;4994920;28;20101;-84
2024/01/13 08:46:36;;;;;;;34.63;14.10;;;;;;;;;;4993906;28;20086;-85
2024/01/13 08:49:01;;;;;;;25.00;10.73;;;;;;;;;;4997424;28;20114;-83
2024/01/13 08:51:27;;;;;;;24.52;11.27;;;;;;;;;;4993435;28;20096;-85
2024/01/13 08:53:52;;;;;;;27.02;10.88;;;;;;;;;;4994945;28;20045;-84
2024/01/13 08:56:18;;;;;;;20.70;9.98;;;;;;;;;;4995292;28;20073;-85
2024/01/13 08:58:43;;;;;;;21.85;9.35;;;;;;;;;;4996775;28;20404;-85
2024/01/13 09:01:09;;;;;;;22.60;9.48;;;;;;;;;;4990683;28;20105;-84
2024/01/13 09:03:34;;;;;;;21.23;9.70;;;;;;;;;;4993017;28;20510;-86
2024/01/13 09:06:00;;;;;;;21.60;9.23;;;;;;;;;;4996694;28;20057;-85
2024/01/13 09:08:25;;;;;;;20.98;9.40;;;;;;;;;;4991780;28;20034;-84
2024/01/13 09:10:51;;;;;;;20.88;10.00;;;;;;;;;;4993642;28;20030;-83
2024/01/13 09:13:16;;;;;;;20.13;9.00;;;;;;;;;;4994326;28;20073;-84
2024/01/13 09:15:42;;;;;;;19.95;9.27;;;;;;;;;;4995606;28;20038;-83
2024/01/13 09:18:08;;;;;;;22.40;10.55;;;;;;;;;;4994323;28;20061;-87
2024/01/13 09:20:34;;;;;;;21.10;9.63;;;;;;;;;;4991299;28;20476;-85
2024/01/13 09:23:00;;;;;;;19.23;9.07;;;;;;;;;;4995449;28;20057;-85
2024/01/13 09:25:25;;;;;;;19.83;9.82;;;;;;;;;;4992860;28;20030;-86
2024/01/13 09:27:53;;;;;;;29.02;12.52;;;;;;;;;;4992022;28;20031;-84
2024/01/13 09:30:19;;;;;;;21.35;9.65;;;;;;;;;;4994611;28;20038;-86
2024/01/13 09:32:45;;;;;;;22.33;9.75;;;;;;;;;;4976445;28;20042;-85
2024/01/13 09:35:10;;;;;;;24.65;11.20;;;;;;;;;;4990918;28;20038;-86
2024/01/13 09:37:36;;;;;;;24.23;11.27;;;;;;;;;;4991907;28;20061;-86
2024/01/13 09:40:04;;;;;;;23.25;10.95;;;;;;;;;;4992827;28;20018;-86
2024/01/13 09:42:33;;;;;;;26.30;12.48;;;;;;;;;;4991276;28;20031;-85
2024/01/13 09:44:59;;;;;;;29.42;13.70;;;;;;;;;;4991537;28;20027;-85
2024/01/13 09:47:24;;;;;;;23.38;11.70;;;;;;;;;;4983659;28;20044;-85
2024/01/13 09:49:51;;;;;;;25.10;11.82;;;;;;;;;;4986601;28;20035;-86
2024/01/13 09:52:17;;;;;;;22.73;11.18;;;;;;;;;;4988127;28;20399;-86
2024/01/13 09:54:49;;;;;;;23.30;11.25;;;;;;;;;;4990309;28;20026;-86
2024/01/13 09:57:15;;;;;;;28.10;12.85;;;;;;;;;;4988192;28;20046;-85
2024/01/13 09:59:41;;;;;;;21.45;10.70;;;;;;;;;;4969947;28;20040;-85
2024/01/13 10:02:15;;;;;;;26.90;11.40;;;;;;;;;;4993074;28;20030;-85
2024/01/13 10:04:43;;;;;;;28.38;12.60;;;;;;;;;;4990550;28;20042;-85
2024/01/13 10:07:09;;;;;;;24.35;11.38;;;;;;;;;;4991267;28;20026;-85
2024/01/13 10:09:35;;;;;;;21.35;9.98;;;;;;;;;;4992672;28;20070;-85
2024/01/13 10:12:06;;;;;;;24.13;11.43;;;;;;;;;;4988952;28;20065;-85
2024/01/13 10:14:33;;;;;;;25.55;11.65;;;;;;;;;;4987664;28;20026;-85
2024/01/13 10:17:03;;;;;;;22.75;10.90;;;;;;;;;;4991374;28;20114;-85
2024/01/13 10:19:29;;;;;;;39.10;16.23;;;;;;;;;;4993181;28;20026;-85
2024/01/13 10:21:55;;;;;;;32.00;12.93;;;;;;;;;;4978717;28;20077;-84
2024/01/13 10:24:20;;;;;;;26.70;12.23;;;;;;;;;;4979566;28;20110;-85
2024/01/13 10:26:46;;;;;;;57.88;23.23;;;;;;;;;;4993604;28;20121;-85
2024/01/13 10:29:13;;;;;;;64.88;25.35;;;;;;;;;;4976422;28;20061;-85
2024/01/13 10:31:39;;;;;;;37.00;15.73;;;;;;;;;;4993061;28;20035;-87
2024/01/13 10:34:11;;;;;;;61.95;23.23;;;;;;;;;;4992495;28;20035;-86
2024/01/13 10:36:38;;;;;;;127.28;40.08;;;;;;;;;;4992289;28;20030;-83
2024/01/13 10:39:04;;;;;;;102.57;34.58;;;;;;;;;;4992752;28;20094;-85
2024/01/13 10:41:30;;;;;;;30.33;13.48;;;;;;;;;;4960929;28;20058;-84
2024/01/13 10:44:02;;;;;;;25.02;11.68;;;;;;;;;;4959643;28;20142;-84
2024/01/13 10:46:31;;;;;;;29.13;12.27;;;;;;;;;;4975629;28;20065;-85
2024/01/13 10:49:02;;;;;;;25.33;11.57;;;;;;;;;;4976808;28;20039;-85
2024/01/13 10:51:42;;;;;;;24.90;11.90;;;;;;;;;;4995033;28;20031;-86
2024/01/13 10:54:08;;;;;;;26.23;11.82;;;;;;;;;;4992692;28;20121;-84
2024/01/13 10:56:38;;;;;;;28.13;12.85;;;;;;;;;;4993229;28;20065;-85
2024/01/13 10:59:05;;;;;;;26.10;12.30;;;;;;;;;;4992155;28;20385;-83
2024/01/13 11:01:31;;;;;;;27.55;12.63;;;;;;;;;;4975004;28;20053;-83
2024/01/13 11:03:58;;;;;;;28.33;12.27;;;;;;;;;;4976652;28;20034;-83
2024/01/13 11:06:25;;;;;;;25.48;11.77;;;;;;;;;;4993991;28;20034;-82
2024/01/13 11:08:51;;;;;;;28.05;12.73;;;;;;;;;;4960703;28;20034;-83
2024/01/13 11:11:26;;;;;;;26.00;12.13;;;;;;;;;;4996316;28;20488;-84
2024/01/13 11:14:14;;;;;;;26.67;11.20;;;;;;;;;;4992201;28;20404;-83
2024/01/13 11:16:44;;;;;;;26.55;11.55;;;;;;;;;;4974194;28;20064;-83
2024/01/13 11:19:10;;;;;;;26.90;11.73;;;;;;;;;;4994939;28;20353;-85
2024/01/13 11:21:36;;;;;;;38.35;16.85;;;;;;;;;;4996161;28;20030;-85
2024/01/13 11:24:12;;;;;;;38.38;16.75;;;;;;;;;;4991216;28;20374;-84
2024/01/13 11:26:43;;;;;;;32.25;14.38;;;;;;;;;;4988143;28;20030;-86
2024/01/13 11:29:24;;;;;;;30.05;14.15;;;;;;;;;;4994783;28;20034;-86
2024/01/13 11:31:57;;;;;;;31.90;13.60;;;;;;;;;;4993425;28;20061;-84
2024/01/13 11:34:23;;;;;;;28.90;13.18;;;;;;;;;;4996013;28;20089;-85
2024/01/13 11:36:51;;;;;;;29.45;13.40;;;;;;;;;;4990742;28;20046;-85
2024/01/13 11:39:18;;;;;;;30.83;13.23;;;;;;;;;;4994470;28;20038;-86
2024/01/13 11:41:57;;;;;;;30.95;13.07;;;;;;;;;;4976754;28;20033;-85
2024/01/13 11:44:44;;;;;;;29.40;13.10;;;;;;;;;;4991780;28;20121;-86
2024/01/13 11:47:14;;;;;;;32.28;14.25;;;;;;;;;;4993810;28;20042;-86
2024/01/13 11:49:43;;;;;;;34.80;15.27;;;;;;;;;;4995032;28;20064;-86
2024/01/13 11:52:16;;;;;;;29.13;13.57;;;;;;;;;;4992123;28;20046;-84
2024/01/13 11:54:46;;;;;;;42.78;18.42;;;;;;;;;;4993544;28;20092;-83
2024/01/13 11:57:13;;;;;;;28.63;13.30;;;;;;;;;;4989453;28;20042;-85
2024/01/13 11:59:38;;;;;;;47.38;22.83;;;;;;;;;;4995333;28;20034;-85
2024/01/13 12:02:04;;;;;;;35.63;15.80;;;;;;;;;;4994301;28;20030;-85
2024/01/13 12:04:33;;;;;;;39.97;18.17;;;;;;;;;;4994264;28;20033;-84
2024/01/13 12:06:59;;;;;;;27.83;12.23;;;;;;;;;;4992403;28;20113;-85
2024/01/13 12:09:27;;;;;;;24.58;12.00;;;;;;;;;;4978032;28;20464;-85
2024/01/13 12:11:53;;;;;;;27.33;11.98;;;;;;;;;;4995403;28;20042;-86
2024/01/13 12:14:32;;;;;;;26.42;12.25;;;;;;;;;;4977718;28;20073;-85
2024/01/13 12:16:59;;;;;;;27.13;11.93;;;;;;;;;;4977870;28;20038;-85
2024/01/13 12:19:39;;;;;;;24.92;11.88;;;;;;;;;;4991180;28;20030;-85
2024/01/13 12:22:05;;;;;;;30.40;12.32;;;;;;;;;;4989092;28;20041;-85
2024/01/13 12:24:32;;;;;;;28.17;12.68;;;;;;;;;;4996025;28;20168;-85
2024/01/13 12:26:58;;;;;;;25.65;12.30;;;;;;;;;;4993120;28;20252;-85
2024/01/13 12:29:29;;;;;;;24.83;11.68;;;;;;;;;;4993350;28;20046;-85
2024/01/13 12:32:03;;;;;;;24.42;10.93;;;;;;;;;;4994163;28;20121;-85
2024/01/13 12:34:31;;;;;;;24.52;11.48;;;;;;;;;;4994211;28;20042;-85
2024/01/13 12:36:57;;;;;;;27.23;12.48;;;;;;;;;;4986423;28;20547;-85
2024/01/13 12:39:23;;;;;;;28.33;12.60;;;;;;;;;;4953476;28;1101599;-85
2024/01/13 12:41:49;;;;;;;25.65;12.43;;;;;;;;;;4991815;28;20289;-85
2024/01/13 12:44:15;;;;;;;25.70;11.18;;;;;;;;;;4995688;28;20117;-85
2024/01/13 12:46:41;;;;;;;26.92;12.07;;;;;;;;;;4990696;28;20064;-84
2024/01/13 12:49:17;;;;;;;24.05;11.93;;;;;;;;;;4992697;28;20079;-85
2024/01/13 12:51:44;;;;;;;24.90;11.63;;;;;;;;;;4994682;28;20069;-86
2024/01/13 12:54:13;;;;;;;28.45;12.77;;;;;;;;;;4996827;28;20033;-86
2024/01/13 12:56:38;;;;;;;27.15;12.75;;;;;;;;;;4995568;28;20034;-84
2024/01/13 12:59:04;;;;;;;29.90;12.05;;;;;;;;;;4962319;28;20038;-86
2024/01/13 13:01:30;;;;;;;24.63;11.57;;;;;;;;;;4991512;28;20034;-86
2024/01/13 13:03:58;;;;;;;25.23;11.85;;;;;;;;;;4992855;28;20046;-86
2024/01/13 13:06:24;;;;;;;27.15;11.70;;;;;;;;;;4979475;28;20043;-84
2024/01/13 13:08:49;;;;;;;21.70;10.65;;;;;;;;;;4988831;28;20050;-84
2024/01/13 13:11:16;;;;;;;26.05;11.10;;;;;;;;;;4994131;28;20026;-86
2024/01/13 13:13:41;;;;;;;24.25;11.43;;;;;;;;;;4991639;28;20071;-87
2024/01/13 13:16:08;;;;;;;22.80;10.55;;;;;;;;;;4996384;28;20030;-85
2024/01/13 13:18:34;;;;;;;23.77;10.90;;;;;;;;;;4996615;28;20129;-87
2024/01/13 13:20:59;;;;;;;27.63;11.38;;;;;;;;;;4995060;28;20017;-85
2024/01/13 13:23:25;;;;;;;23.65;11.55;;;;;;;;;;4993282;28;20100;-86
2024/01/13 13:25:50;;;;;;;24.45;10.45;;;;;;;;;;4994146;28;20026;-85
2024/01/13 13:28:16;;;;;;;25.55;11.52;;;;;;;;;;4995464;28;20034;-85
2024/01/13 13:30:43;;;;;;;22.38;11.65;;;;;;;;;;4976927;28;20049;-86
2024/01/13 13:33:09;;;;;;;24.40;10.75;;;;;;;;;;4991799;28;20428;-85
2024/01/13 13:35:38;;;;;;;25.50;11.20;;;;;;;;;;4995505;28;20089;-86
2024/01/13 13:38:03;;;;;;;22.08;10.90;;;;;;;;;;4977636;28;20046;-86
2024/01/13 13:40:29;;;;;;;24.75;11.40;;;;;;;;;;4975898;28;20092;-86
2024/01/13 13:42:54;;;;;;;28.00;13.40;;;;;;;;;;4992525;28;20026;-86
2024/01/13 13:45:19;;;;;;;22.75;10.88;;;;;;;;;;4995756;28;20037;-86
2024/01/13 13:47:45;;;;;;;26.15;11.65;;;;;;;;;;4996632;28;20564;-87
2024/01/13 13:50:10;;;;;;;26.25;10.98;;;;;;;;;;4995966;28;20037;-87
2024/01/13 13:52:36;;;;;;;24.52;10.88;;;;;;;;;;4977576;28;20043;-85
2024/01/13 13:55:02;;;;;;;25.42;12.07;;;;;;;;;;4994163;28;20035;-86
2024/01/13 13:57:27;;;;;;;26.45;11.75;;;;;;;;;;4995814;28;20061;-86
2024/01/13 13:59:53;;;;;;;24.73;11.82;;;;;;;;;;4996556;28;20069;-85
2024/01/13 14:02:18;;;;;;;26.48;11.13;;;;;;;;;;4993186;28;20026;-85
2024/01/13 14:04:44;;;;;;;24.17;11.25;;;;;;;;;;4977620;28;20507;-85
2024/01/13 14:07:09;;;;;;;25.27;11.18;;;;;;;;;;4994224;28;20137;-85
2024/01/13 14:09:35;;;;;;;21.23;10.43;;;;;;;;;;4994774;28;20435;-86
2024/01/13 14:12:01;;;;;;;15.95;7.57;;;;;;;;;;4992954;28;20031;-85
2024/01/13 14:14:27;;;;;;;21.33;10.93;;;;;;;;;;4991039;28;20571;-84